Terminal Aerodrome Forecast
Issued by NWS Glasgow, MT

Home | Current Version | Previous Version | Text Only | Print | Product List | Glossary On
Versions: 1 2 3 4 5 6 7 8 9 10 11 12 13 14
260
FTUS45 KGGW 202020 AAB
TAFGGW
TAF AMD
KGGW 202020Z 2020/2118 10017KT P6SM FEW110
     FM210800 VRB06KT P6SM FEW180
     FM211400 30011KT P6SM SCT150=

USA.gov is the U.S. government's official web portal to all federal, state and local government web resources and services.